Time;durP1;ratioP1;P1;durP2;ratioP2;P2;SDS_P1;SDS_P2;PMS_P1;PMS_P2;Temp;Humidity;BMP_temperature;BMP_pressure;BME280_temperature;BME280_humidity;BME280_pressure;Samples;Min_cycle;Max_cycle;Signal;HPM_P1;HPM_P2
2022/07/16 00:02:06;;;;;;;4.47;2.60;;;15.90;99.90;;;;;;5056695;28;20239;-60
2022/07/16 00:04:34;;;;;;;4.10;2.07;;;15.90;99.90;;;;;;5055406;28;20594;-59
2022/07/16 00:07:02;;;;;;;3.13;2.40;;;15.90;99.90;;;;;;5055227;28;20223;-58
2022/07/16 00:09:30;;;;;;;4.57;2.80;;;15.90;99.90;;;;;;5054845;28;20224;-59
2022/07/16 00:11:58;;;;;;;3.70;2.70;;;15.90;99.90;;;;;;5058118;28;20281;-60
2022/07/16 00:14:28;;;;;;;3.07;2.47;;;15.90;99.90;;;;;;5055603;28;20234;-60
2022/07/16 00:16:56;;;;;;;5.00;2.80;;;15.90;99.90;;;;;;5054939;28;20578;-59
2022/07/16 00:19:23;;;;;;;3.47;2.77;;;15.90;99.90;;;;;;5055431;28;20228;-59
2022/07/16 00:21:59;;;;;;;5.27;3.13;;;15.90;99.90;;;;;;5054692;28;20297;-59
2022/07/16 00:24:28;;;;;;;3.23;2.73;;;15.90;99.90;;;;;;5054608;28;20258;-59
2022/07/16 00:26:56;;;;;;;4.53;2.53;;;15.90;99.90;;;;;;5054673;28;20259;-60
2022/07/16 00:29:24;;;;;;;4.20;2.87;;;15.80;99.90;;;;;;5053353;28;20232;-60
2022/07/16 00:31:54;;;;;;;3.80;2.80;;;15.80;99.90;;;;;;5054310;28;20715;-60
2022/07/16 00:34:23;;;;;;;3.90;2.90;;;15.80;99.90;;;;;;5053349;28;20286;-60
2022/07/16 00:36:58;;;;;;;5.10;2.97;;;15.80;99.90;;;;;;5054734;28;20766;-60
2022/07/16 00:39:26;;;;;;;3.10;2.73;;;15.70;99.90;;;;;;5054513;28;20315;-59
2022/07/16 00:41:55;;;;;;;2.90;2.57;;;15.70;99.90;;;;;;5054140;28;20679;-59
2022/07/16 00:44:23;;;;;;;4.70;3.30;;;15.70;99.90;;;;;;5054177;28;20684;-61
2022/07/16 00:46:52;;;;;;;3.70;3.00;;;15.70;99.90;;;;;;5054628;28;20695;-60
2022/07/16 00:49:21;;;;;;;4.80;2.93;;;15.70;99.90;;;;;;5054556;28;20224;-60
2022/07/16 00:51:56;;;;;;;3.57;2.80;;;15.70;99.90;;;;;;5053299;28;20373;-60
2022/07/16 00:54:24;;;;;;;3.90;2.90;;;15.70;99.90;;;;;;5054052;28;20695;-59
2022/07/16 00:56:53;;;;;;;4.77;3.33;;;15.70;99.90;;;;;;5054384;28;20599;-60
2022/07/16 00:59:22;;;;;;;4.67;2.90;;;15.70;99.90;;;;;;5053977;28;20238;-60
2022/07/16 01:01:50;;;;;;;3.60;2.77;;;15.70;99.90;;;;;;5053532;28;20734;-59
2022/07/16 01:04:20;;;;;;;3.63;2.97;;;15.70;99.90;;;;;;5054022;28;20220;-60
2022/07/16 01:06:50;;;;;;;4.47;2.97;;;15.60;99.90;;;;;;5053703;28;20231;-60
2022/07/16 01:09:18;;;;;;;4.97;3.03;;;15.60;99.90;;;;;;5053772;28;20628;-60
2022/07/16 01:11:48;;;;;;;3.43;3.00;;;15.60;99.90;;;;;;5054265;28;20282;-60
2022/07/16 01:14:17;;;;;;;5.70;3.17;;;15.60;99.90;;;;;;5053533;28;20245;-60
2022/07/16 01:16:45;;;;;;;3.80;3.30;;;15.70;99.90;;;;;;5053794;28;20239;-59
2022/07/16 01:19:14;;;;;;;4.00;2.90;;;15.60;99.90;;;;;;5053711;28;20319;-60
2022/07/16 01:21:43;;;;;;;4.87;3.00;;;15.60;99.90;;;;;;5053726;28;20227;-60
2022/07/16 01:24:13;;;;;;;4.60;3.00;;;15.50;99.90;;;;;;5053350;28;20255;-60
2022/07/16 01:26:42;;;;;;;3.47;3.10;;;15.40;99.90;;;;;;5053830;28;20230;-60
2022/07/16 01:29:10;;;;;;;4.33;3.30;;;15.40;99.90;;;;;;5053720;28;20232;-59
2022/07/16 01:31:38;;;;;;;5.57;3.30;;;15.30;99.90;;;;;;5052991;28;20240;-59
2022/07/16 01:36:57;;;;;;;4.13;3.00;;;15.40;99.90;;;;;;5053238;28;20319;-60
2022/07/16 01:39:28;;;;;;;3.20;2.90;;;15.40;99.90;;;;;;5053308;28;20285;-58
2022/07/16 01:41:58;;;;;;;3.60;2.80;;;15.40;99.90;;;;;;5052981;28;20224;-60
2022/07/16 01:44:28;;;;;;;4.57;3.10;;;15.40;99.90;;;;;;5052849;28;20576;-59
2022/07/16 01:46:57;;;;;;;3.83;3.17;;;15.40;99.90;;;;;;5053544;28;20232;-60
2022/07/16 01:49:29;;;;;;;5.83;3.80;;;15.40;99.90;;;;;;5053273;28;20308;-59
2022/07/16 01:51:58;;;;;;;4.83;2.93;;;15.30;99.90;;;;;;5052277;28;20322;-60
2022/07/16 01:54:28;;;;;;;3.73;3.27;;;15.30;99.90;;;;;;5052641;28;20584;-60
2022/07/16 01:56:56;;;;;;;5.87;3.20;;;15.30;99.90;;;;;;5053274;28;20232;-58
2022/07/16 01:59:25;;;;;;;3.77;3.30;;;15.30;99.90;;;;;;5053022;28;20587;-60
2022/07/16 02:01:54;;;;;;;5.50;3.40;;;15.30;99.90;;;;;;5051251;28;20726;-60
2022/07/16 02:04:22;;;;;;;4.53;3.30;;;15.30;99.90;;;;;;5057808;28;20578;-59
2022/07/16 02:06:50;;;;;;;4.30;3.63;;;15.30;99.90;;;;;;5072848;28;20670;-60
2022/07/16 02:09:18;;;;;;;5.47;3.80;;;15.30;99.90;;;;;;5067599;28;20703;-60
2022/07/16 02:11:48;;;;;;;5.57;3.60;;;15.40;99.90;;;;;;5053196;28;20232;-60
2022/07/16 02:14:16;;;;;;;3.63;3.13;;;15.40;99.90;;;;;;5052328;28;20259;-59
2022/07/16 02:16:44;;;;;;;3.80;3.10;;;15.40;99.90;;;;;;5052769;28;20315;-60
2022/07/16 02:19:12;;;;;;;3.87;3.27;;;15.30;99.90;;;;;;5052686;28;20701;-60
2022/07/16 02:21:40;;;;;;;4.20;3.13;;;15.40;99.90;;;;;;5052365;28;20258;-59
2022/07/16 02:24:08;;;;;;;5.77;3.43;;;15.30;99.90;;;;;;5052480;28;20223;-60
2022/07/16 02:26:37;;;;;;;3.73;2.97;;;15.40;99.90;;;;;;5052319;28;20231;-60
2022/07/16 02:29:06;;;;;;;4.57;3.00;;;15.30;99.90;;;;;;5052891;28;20223;-59
2022/07/16 02:31:40;;;;;;;4.67;3.00;;;15.30;99.90;;;;;;5052187;28;20737;-60
2022/07/16 02:34:08;;;;;;;5.23;2.90;;;15.40;99.90;;;;;;5052428;28;20251;-59
2022/07/16 02:36:37;;;;;;;4.07;3.10;;;15.40;99.90;;;;;;5052550;28;20723;-59
2022/07/16 02:39:05;;;;;;;3.93;3.00;;;15.40;99.90;;;;;;5052803;28;20330;-60
2022/07/16 02:41:33;;;;;;;4.73;3.07;;;15.40;99.90;;;;;;5052412;28;20233;-60
2022/07/16 02:44:01;;;;;;;6.13;3.13;;;15.50;99.90;;;;;;5051138;28;20310;-59
2022/07/16 02:46:31;;;;;;;3.97;2.77;;;15.40;99.90;;;;;;5052512;28;20231;-59
2022/07/16 02:48:59;;;;;;;4.20;2.50;;;15.40;99.90;;;;;;5052713;28;20232;-60
2022/07/16 02:51:27;;;;;;;3.60;2.80;;;15.40;99.90;;;;;;5052265;28;20298;-60
2022/07/16 02:53:55;;;;;;;6.30;3.03;;;15.40;99.90;;;;;;5052398;28;20672;-60
2022/07/16 02:56:29;;;;;;;2.93;2.60;;;15.40;99.90;;;;;;5051447;28;20636;-60
2022/07/16 02:58:58;;;;;;;5.03;2.80;;;15.40;99.90;;;;;;5056661;28;20225;-60
2022/07/16 03:01:26;;;;;;;4.57;2.53;;;15.30;99.90;;;;;;5055697;28;20239;-60
2022/07/16 03:03:56;;;;;;;4.53;2.53;;;15.20;99.90;;;;;;5056669;28;20226;-60
2022/07/16 03:06:24;;;;;;;3.50;2.60;;;15.10;99.90;;;;;;5056147;28;20307;-60
2022/07/16 03:08:52;;;;;;;4.63;2.63;;;15.20;99.90;;;;;;5055989;28;20266;-59
2022/07/16 03:11:20;;;;;;;3.30;2.30;;;15.10;99.90;;;;;;5056712;28;20323;-59
2022/07/16 03:13:49;;;;;;;4.63;2.40;;;15.00;99.90;;;;;;5055671;28;20231;-60
2022/07/16 03:16:17;;;;;;;3.77;2.40;;;15.10;99.90;;;;;;5056268;28;20583;-59
2022/07/16 03:18:45;;;;;;;3.60;2.50;;;15.10;99.90;;;;;;5055732;28;20223;-59
2022/07/16 03:21:14;;;;;;;2.90;2.13;;;15.10;99.90;;;;;;5055915;28;20216;-60
2022/07/16 03:23:42;;;;;;;3.50;2.30;;;15.00;99.90;;;;;;5055890;28;20683;-60
2022/07/16 03:26:11;;;;;;;6.90;2.50;;;15.00;99.90;;;;;;5055721;28;20324;-60
2022/07/16 03:28:39;;;;;;;4.90;2.60;;;15.00;99.90;;;;;;5055552;28;20228;-60
2022/07/16 03:31:08;;;;;;;3.50;2.10;;;15.10;99.90;;;;;;5055378;28;20227;-59
2022/07/16 03:33:36;;;;;;;4.20;2.50;;;15.10;99.90;;;;;;5054835;28;20223;-59
2022/07/16 03:36:05;;;;;;;3.97;2.33;;;15.00;99.90;;;;;;5055777;28;20219;-60
2022/07/16 03:41:20;;;;;;;5.27;2.10;;;14.90;99.90;;;;;;5055929;28;20318;-60
2022/07/16 03:43:48;;;;;;;3.77;1.97;;;14.90;99.90;;;;;;5055245;28;20239;-60
2022/07/16 03:46:16;;;;;;;4.60;2.23;;;14.80;99.90;;;;;;5055429;28;20220;-60
2022/07/16 03:48:45;;;;;;;3.43;1.93;;;14.80;99.90;;;;;;5055559;28;20588;-60
2022/07/16 03:51:14;;;;;;;2.93;1.80;;;14.80;99.90;;;;;;5055362;28;20302;-58
2022/07/16 03:53:43;;;;;;;6.63;2.00;;;14.80;99.90;;;;;;5055253;28;20270;-60
2022/07/16 03:56:11;;;;;;;2.43;1.53;;;14.80;99.90;;;;;;5055238;28;20321;-60
2022/07/16 03:58:40;;;;;;;4.03;2.33;;;14.80;99.90;;;;;;5055193;28;20278;-59
2022/07/16 04:01:08;;;;;;;5.47;2.20;;;14.90;99.90;;;;;;5054757;28;20228;-60
2022/07/16 04:03:37;;;;;;;3.17;2.17;;;14.80;99.90;;;;;;5055046;28;20220;-59
2022/07/16 04:06:06;;;;;;;3.17;1.83;;;14.80;99.90;;;;;;5055370;28;20235;-60
2022/07/16 04:08:34;;;;;;;3.97;2.03;;;14.80;99.90;;;;;;5054725;28;20228;-59
2022/07/16 04:11:04;;;;;;;4.03;1.60;;;15.00;99.90;;;;;;5055222;28;20703;-59
2022/07/16 04:13:32;;;;;;;4.10;2.33;;;15.00;99.90;;;;;;5054854;28;20614;-60
2022/07/16 04:16:01;;;;;;;2.73;1.83;;;15.10;99.90;;;;;;5055060;28;20228;-60
2022/07/16 04:18:29;;;;;;;3.70;1.90;;;15.10;99.90;;;;;;5054896;28;20222;-59
2022/07/16 04:20:57;;;;;;;3.70;1.87;;;15.20;99.90;;;;;;5054447;28;20227;-60
2022/07/16 04:23:25;;;;;;;3.27;1.80;;;15.20;99.90;;;;;;5055143;28;20687;-59
2022/07/16 04:25:53;;;;;;;5.53;2.13;;;15.20;99.90;;;;;;5054934;28;20227;-60
2022/07/16 04:28:23;;;;;;;5.23;1.73;;;15.20;99.90;;;;;;5054893;28;20255;-59
2022/07/16 04:30:51;;;;;;;3.10;1.60;;;15.20;99.90;;;;;;5054581;28;20282;-59
2022/07/16 04:33:19;;;;;;;4.90;2.23;;;15.20;99.90;;;;;;5054896;28;20235;-59
2022/07/16 04:35:49;;;;;;;4.07;2.00;;;15.20;99.90;;;;;;5054200;28;20236;-60
2022/07/16 04:38:17;;;;;;;4.17;1.80;;;15.20;99.90;;;;;;5054813;28;20607;-60
2022/07/16 04:40:46;;;;;;;4.00;2.07;;;15.20;99.90;;;;;;5054520;28;20259;-60
2022/07/16 04:43:14;;;;;;;3.87;2.03;;;15.20;99.90;;;;;;5054645;28;20330;-59
2022/07/16 04:45:44;;;;;;;3.30;1.73;;;15.30;99.90;;;;;;5054507;28;20630;-59
2022/07/16 04:48:12;;;;;;;3.30;1.97;;;15.30;99.90;;;;;;5054203;28;20227;-60
2022/07/16 04:50:41;;;;;;;5.47;2.10;;;15.20;99.90;;;;;;5053356;28;20283;-60
2022/07/16 04:53:09;;;;;;;4.30;2.10;;;15.30;99.90;;;;;;5054080;28;20256;-59
2022/07/16 04:55:37;;;;;;;5.00;2.00;;;15.20;99.90;;;;;;5052585;28;20224;-60
2022/07/16 04:58:06;;;;;;;5.33;1.90;;;15.30;99.90;;;;;;5054294;28;20224;-59
2022/07/16 05:00:35;;;;;;;2.80;1.67;;;15.40;99.90;;;;;;5053481;28;20319;-59
2022/07/16 05:03:06;;;;;;;4.70;2.60;;;15.60;99.90;;;;;;5054302;28;20216;-60
2022/07/16 05:05:37;;;;;;;6.37;2.17;;;15.70;99.90;;;;;;5053237;28;20223;-59
2022/07/16 05:08:06;;;;;;;4.70;2.20;;;15.70;99.90;;;;;;5053684;28;20298;-59
2022/07/16 05:10:35;;;;;;;4.13;1.90;;;15.60;99.90;;;;;;5051072;28;20250;-59
2022/07/16 05:13:03;;;;;;;4.50;1.73;;;15.60;99.90;;;;;;5052773;28;20306;-60
2022/07/16 05:15:32;;;;;;;4.87;1.70;;;15.60;99.90;;;;;;5052061;28;20229;-59
2022/07/16 05:18:00;;;;;;;3.87;1.93;;;15.50;99.90;;;;;;5051138;28;20231;-60
2022/07/16 05:20:30;;;;;;;3.80;2.47;;;15.50;99.90;;;;;;5052841;28;20231;-59
2022/07/16 05:22:58;;;;;;;5.43;2.10;;;15.40;99.90;;;;;;5052756;28;20226;-60
2022/07/16 05:25:26;;;;;;;5.03;2.07;;;15.30;99.90;;;;;;5053370;28;20228;-60
2022/07/16 05:27:54;;;;;;;4.57;1.70;;;15.30;99.90;;;;;;5053369;28;20224;-60
2022/07/16 05:30:22;;;;;;;5.30;2.37;;;15.30;99.90;;;;;;5053346;28;20270;-60
2022/07/16 05:32:51;;;;;;;4.03;1.60;;;15.30;99.90;;;;;;5053253;28;20227;-60
2022/07/16 05:35:20;;;;;;;5.37;2.50;;;15.20;99.90;;;;;;5040334;28;20231;-61
2022/07/16 05:37:49;;;;;;;4.80;1.90;;;15.20;99.90;;;;;;5033531;28;20241;-60
2022/07/16 05:40:17;;;;;;;4.33;1.80;;;15.20;99.90;;;;;;5033633;28;20263;-60
2022/07/16 05:42:45;;;;;;;3.37;2.00;;;15.30;99.90;;;;;;5046982;28;20227;-60
2022/07/16 05:45:17;;;;;;;5.37;1.77;;;15.20;99.90;;;;;;5053195;28;20220;-60
2022/07/16 05:47:45;;;;;;;3.77;1.90;;;15.20;99.90;;;;;;5053278;28;20699;-60
2022/07/16 05:50:13;;;;;;;3.93;1.33;;;15.30;99.90;;;;;;5053047;28;20236;-60
2022/07/16 05:52:41;;;;;;;4.50;1.40;;;15.50;99.90;;;;;;5033278;28;20315;-60
2022/07/16 05:55:14;;;;;;;4.83;1.47;;;15.50;99.90;;;;;;5049592;28;20239;-60
2022/07/16 05:57:43;;;;;;;5.87;1.47;;;15.60;99.90;;;;;;5052704;28;20334;-60
2022/07/16 06:00:12;;;;;;;5.97;1.47;;;15.60;99.90;;;;;;5046518;28;20228;-59
2022/07/16 06:02:41;;;;;;;4.53;1.63;;;15.50;99.90;;;;;;5050445;28;20266;-60
2022/07/16 06:05:10;;;;;;;5.87;1.50;;;15.70;99.90;;;;;;5051647;28;20699;-60
2022/07/16 06:07:38;;;;;;;4.03;1.20;;;15.70;99.90;;;;;;5052977;28;20251;-60
2022/07/16 06:10:07;;;;;;;2.73;1.07;;;15.70;99.90;;;;;;5052740;28;20236;-60
2022/07/16 06:12:37;;;;;;;3.87;0.90;;;15.70;99.90;;;;;;5053062;28;20223;-60
2022/07/16 06:15:06;;;;;;;4.00;1.73;;;15.70;99.90;;;;;;5051720;28;20231;-60
2022/07/16 06:17:35;;;;;;;2.60;0.93;;;15.90;99.90;;;;;;5051925;28;20286;-60
2022/07/16 06:20:04;;;;;;;3.40;1.10;;;15.90;99.90;;;;;;5052138;28;20224;-60
2022/07/16 06:22:32;;;;;;;3.90;1.10;;;16.00;99.90;;;;;;5051941;28;20224;-60
2022/07/16 06:25:00;;;;;;;2.37;1.00;;;16.00;99.90;;;;;;5052737;28;20224;-60
2022/07/16 06:27:29;;;;;;;4.57;1.17;;;16.10;99.90;;;;;;5032760;28;20231;-60
2022/07/16 06:30:02;;;;;;;2.90;1.23;;;16.50;99.90;;;;;;5050824;28;20251;-61
2022/07/16 06:32:30;;;;;;;3.40;1.13;;;17.10;99.90;;;;;;5050146;28;20314;-61
2022/07/16 06:34:59;;;;;;;4.90;1.00;;;17.80;99.90;;;;;;5052709;28;20322;-61
2022/07/16 06:37:27;;;;;;;4.33;1.03;;;18.30;99.90;;;;;;5051740;28;20228;-60
2022/07/16 06:39:55;;;;;;;4.07;1.20;;;18.60;99.90;;;;;;5052366;28;20346;-62
2022/07/16 06:42:23;;;;;;;3.57;1.10;;;18.50;99.90;;;;;;5052251;28;20237;-61
2022/07/16 06:44:51;;;;;;;3.37;1.00;;;18.60;99.90;;;;;;5049960;28;20235;-61
2022/07/16 06:47:21;;;;;;;4.47;0.93;;;18.70;99.90;;;;;;5052063;28;20220;-61
2022/07/16 06:49:49;;;;;;;3.73;1.10;;;19.00;99.90;;;;;;5051731;28;20236;-62
2022/07/16 06:52:17;;;;;;;4.17;1.10;;;19.30;99.90;;;;;;5051799;28;20244;-62
2022/07/16 06:54:45;;;;;;;5.20;1.30;;;19.70;99.90;;;;;;5051774;28;20376;-62
2022/07/16 06:57:13;;;;;;;7.40;1.50;;;19.50;99.90;;;;;;5049070;28;20235;-62
2022/07/16 06:59:41;;;;;;;3.50;1.10;;;19.40;99.90;;;;;;5050353;28;20232;-62
2022/07/16 07:02:10;;;;;;;3.07;1.10;;;19.50;99.90;;;;;;5051517;28;20272;-63
2022/07/16 07:04:43;;;;;;;4.50;0.97;;;19.90;99.90;;;;;;5051595;28;20241;-62
2022/07/16 07:07:12;;;;;;;5.87;1.33;;;19.80;99.90;;;;;;5052215;28;20297;-62
2022/07/16 07:09:40;;;;;;;6.43;1.30;;;20.00;99.90;;;;;;5052051;28;20258;-63
2022/07/16 07:12:09;;;;;;;6.63;1.37;;;19.80;99.90;;;;;;5052059;28;20266;-63
2022/07/16 07:14:37;;;;;;;4.80;1.20;;;19.20;99.90;;;;;;5043788;28;20235;-62
2022/07/16 07:17:05;;;;;;;5.53;1.20;;;18.60;99.90;;;;;;5052475;28;20233;-62
2022/07/16 07:19:34;;;;;;;7.93;1.53;;;18.10;99.90;;;;;;5052317;28;20230;-63
2022/07/16 07:22:32;;;;;;;8.57;2.00;;;17.90;99.90;;;;;;5052618;28;20709;-63
2022/07/16 07:25:00;;;;;;;5.70;1.00;;;18.00;99.90;;;;;;5052033;28;20264;-63
2022/07/16 07:27:28;;;;;;;8.17;1.27;;;18.60;99.90;;;;;;5052391;28;20741;-62
2022/07/16 07:29:56;;;;;;;4.43;1.20;;;19.00;99.90;;;;;;5052611;28;20764;-63
2022/07/16 07:32:25;;;;;;;3.50;1.30;;;18.90;99.90;;;;;;5050984;28;20248;-63
2022/07/16 07:34:53;;;;;;;4.63;1.23;;;18.60;99.90;;;;;;5052899;28;20230;-63
2022/07/16 07:37:22;;;;;;;7.17;1.20;;;18.70;99.90;;;;;;5050360;28;20225;-63
2022/07/16 07:39:57;;;;;;;4.70;1.13;;;19.00;99.90;;;;;;5046280;28;20230;-63
2022/07/16 07:42:25;;;;;;;4.53;0.90;;;19.00;99.90;;;;;;5052797;28;20244;-63
2022/07/16 07:44:54;;;;;;;6.30;1.33;;;18.70;99.90;;;;;;5055366;28;20258;-62
2022/07/16 07:47:22;;;;;;;4.43;1.20;;;18.40;99.90;;;;;;5055275;28;20228;-62
2022/07/16 07:49:50;;;;;;;6.53;1.80;;;17.90;99.90;;;;;;5055708;28;20259;-62
2022/07/16 07:52:19;;;;;;;4.20;1.03;;;17.80;99.90;;;;;;5055468;28;20248;-63
2022/07/16 07:54:47;;;;;;;5.67;1.30;;;18.20;99.90;;;;;;5055457;28;20658;-63
2022/07/16 07:57:16;;;;;;;5.00;1.23;;;18.60;99.90;;;;;;5054886;28;20225;-63
2022/07/16 07:59:44;;;;;;;6.80;1.17;;;18.70;99.90;;;;;;5055020;28;20280;-63
2022/07/16 08:02:12;;;;;;;8.03;1.20;;;18.30;99.90;;;;;;5054621;28;20317;-63
2022/07/16 08:04:40;;;;;;;5.50;0.87;;;18.50;99.90;;;;;;5055244;28;20320;-62
2022/07/16 08:07:12;;;;;;;5.00;1.20;;;18.70;99.90;;;;;;5055306;28;20343;-63
2022/07/16 08:09:40;;;;;;;6.07;1.50;;;19.50;99.90;;;;;;5054633;28;20232;-63
2022/07/16 08:12:08;;;;;;;5.63;1.10;;;19.60;99.90;;;;;;5055673;28;20265;-62
2022/07/16 08:14:38;;;;;;;3.50;0.90;;;19.60;99.90;;;;;;5052409;28;20701;-63
2022/07/16 08:17:07;;;;;;;4.93;1.10;;;19.70;99.90;;;;;;5051679;28;20233;-63
2022/07/16 08:19:35;;;;;;;6.30;1.03;;;20.20;99.90;;;;;;5052823;28;20234;-63
2022/07/16 08:22:10;;;;;;;6.90;1.30;;;20.30;99.90;;;;;;5051436;28;20230;-63
2022/07/16 08:27:23;;;;;;;2.80;0.83;;;20.40;99.90;;;;;;5053856;28;20589;-64
2022/07/16 08:29:53;;;;;;;2.40;0.70;;;20.50;99.90;;;;;;5051580;28;20233;-63
2022/07/16 08:32:21;;;;;;;1.57;0.60;;;20.70;99.90;;;;;;5053658;28;20257;-63
2022/07/16 08:34:50;;;;;;;2.97;0.70;;;20.90;99.90;;;;;;5051764;28;20591;-64
2022/07/16 08:37:33;;;;;;;4.33;0.97;;;20.90;99.90;;;;;;5053937;28;20735;-64
2022/07/16 08:40:02;;;;;;;3.80;1.00;;;21.00;99.90;;;;;;5051463;28;20227;-64
2022/07/16 08:42:32;;;;;;;6.50;1.50;;;21.00;99.90;;;;;;5052133;28;20233;-64
2022/07/16 08:45:03;;;;;;;2.50;0.90;;;21.30;99.90;;;;;;5052770;28;20231;-65
2022/07/16 08:47:32;;;;;;;3.63;0.70;;;21.70;99.90;;;;;;5052872;28;20232;-65
2022/07/16 08:50:03;;;;;;;2.93;0.80;;;22.20;99.90;;;;;;5053922;28;20262;-64
2022/07/16 08:52:32;;;;;;;3.13;0.93;;;21.80;99.90;;;;;;5053440;28;20300;-64
2022/07/16 08:55:00;;;;;;;4.63;1.27;;;21.70;99.90;;;;;;5051380;28;20289;-64
2022/07/16 08:57:31;;;;;;;4.30;1.00;;;21.40;99.90;;;;;;5051751;28;20228;-64
2022/07/16 09:00:00;;;;;;;6.23;1.10;;;20.70;99.90;;;;;;5054116;28;20281;-64
2022/07/16 09:02:29;;;;;;;4.73;1.03;;;20.00;99.90;;;;;;5049006;28;20285;-64
2022/07/16 09:04:57;;;;;;;5.10;1.20;;;19.70;99.90;;;;;;5052092;28;20322;-64
2022/07/16 09:07:25;;;;;;;4.47;1.20;;;19.60;99.90;;;;;;5050526;28;20238;-64
2022/07/16 09:09:53;;;;;;;4.80;1.43;;;20.20;99.90;;;;;;5053956;28;20234;-64
2022/07/16 09:12:39;;;;;;;7.37;1.73;;;20.30;99.90;;;;;;5048717;28;20223;-64
2022/07/16 09:15:30;;;;;;;5.63;1.10;;;19.90;99.90;;;;;;5053160;28;20219;-64
2022/07/16 09:18:16;;;;;;;5.03;1.67;;;20.10;99.90;;;;;;5053714;28;20226;-64
2022/07/16 09:20:48;;;;;;;5.07;1.27;;;20.40;99.90;;;;;;5033576;28;20233;-64
2022/07/16 09:23:22;;;;;;;6.63;1.47;;;21.10;99.90;;;;;;5043502;28;20235;-64
2022/07/16 09:25:51;;;;;;;6.33;1.33;;;20.60;99.90;;;;;;5053472;28;20325;-64
2022/07/16 09:28:19;;;;;;;4.63;1.40;;;20.10;99.90;;;;;;5053573;28;20259;-64
2022/07/16 09:30:49;;;;;;;7.50;1.27;;;19.90;99.90;;;;;;5052981;28;20317;-64
2022/07/16 09:33:20;;;;;;;4.87;1.50;;;19.40;99.90;;;;;;5053081;28;20579;-63
2022/07/16 09:35:49;;;;;;;6.10;1.43;;;19.50;99.90;;;;;;5053549;28;20594;-64
2022/07/16 09:38:17;;;;;;;5.60;1.37;;;20.10;99.90;;;;;;5053402;28;20403;-64
2022/07/16 09:40:47;;;;;;;6.23;1.40;;;20.90;99.90;;;;;;5053105;28;20262;-63
2022/07/16 09:43:23;;;;;;;6.43;1.37;;;20.40;99.90;;;;;;5053367;28;20598;-63
2022/07/16 09:45:58;;;;;;;3.87;0.80;;;19.70;99.90;;;;;;5053114;28;20227;-63
2022/07/16 09:48:28;;;;;;;4.23;1.20;;;20.10;99.90;;;;;;5053137;28;20226;-63
2022/07/16 09:50:58;;;;;;;3.50;1.17;;;20.70;99.90;;;;;;5053016;28;20243;-64
2022/07/16 09:53:28;;;;;;;5.43;1.00;;;21.70;99.90;;;;;;5052901;28;20258;-63
2022/07/16 09:56:02;;;;;;;4.67;1.20;;;22.60;99.90;;;;;;5052328;28;20261;-67
2022/07/16 09:58:30;;;;;;;5.53;1.40;;;21.70;99.90;;;;;;5051160;28;20311;-65
2022/07/16 10:01:02;;;;;;;3.43;1.17;;;21.20;99.90;;;;;;5051875;28;20280;-66
2022/07/16 10:03:35;;;;;;;4.80;1.07;;;21.40;99.90;;;;;;5052305;28;20227;-67
2022/07/16 10:06:03;;;;;;;4.33;1.10;;;21.90;99.90;;;;;;5052250;28;20238;-65
2022/07/16 10:08:32;;;;;;;3.97;1.00;;;21.40;99.90;;;;;;5052932;28;20643;-65
2022/07/16 10:11:03;;;;;;;4.57;1.13;;;20.90;99.90;;;;;;5052216;28;20266;-65
2022/07/16 10:13:33;;;;;;;52.67;47.23;;;20.30;99.90;;;;;;5052151;28;20579;-64
2022/07/16 10:16:03;;;;;;;13.70;12.07;;;19.80;99.90;;;;;;5050656;28;20629;-65
2022/07/16 10:18:37;;;;;;;6.43;2.47;;;20.30;99.90;;;;;;5051156;28;20861;-65
2022/07/16 10:21:09;;;;;;;3.00;1.90;;;21.10;99.90;;;;;;5052490;28;20249;-65
2022/07/16 10:23:38;;;;;;;4.80;1.80;;;21.10;99.90;;;;;;5051967;28;20321;-65
2022/07/16 10:26:08;;;;;;;4.00;1.47;;;21.20;99.90;;;;;;5052270;28;20325;-65
2022/07/16 10:28:44;;;;;;;4.17;1.40;;;21.80;99.90;;;;;;5052472;28;20255;-66
2022/07/16 10:31:37;;;;;;;3.83;1.40;;;22.70;99.90;;;;;;5051589;28;20300;-66
2022/07/16 10:34:38;;;;;;;6.27;1.20;;;22.50;99.90;;;;;;5052122;28;20224;-66
2022/07/16 10:37:12;;;;;;;3.57;1.07;;;22.90;99.90;;;;;;5039675;28;20262;-66
2022/07/16 10:40:06;;;;;;;3.27;1.27;;;22.70;99.90;;;;;;5051715;28;20231;-66
2022/07/16 10:42:35;;;;;;;3.67;1.23;;;22.10;99.90;;;;;;5045085;28;20259;-65
2022/07/16 10:45:04;;;;;;;6.13;1.10;;;21.80;99.90;;;;;;5051957;28;20234;-66
2022/07/16 10:47:48;;;;;;;5.53;1.43;;;21.70;99.90;;;;;;5050637;28;20222;-65
2022/07/16 10:50:23;;;;;;;4.20;1.30;;;21.60;99.90;;;;;;5049722;28;20227;-65
2022/07/16 10:52:53;;;;;;;4.67;1.40;;;21.30;99.90;;;;;;5052202;28;20226;-65
2022/07/16 10:55:40;;;;;;;12.83;6.37;;;21.20;99.90;;;;;;5052165;28;20227;-65
2022/07/16 10:58:09;;;;;;;4.47;1.70;;;21.20;99.90;;;;;;5050701;28;20218;-65
2022/07/16 11:00:38;;;;;;;5.30;1.27;;;21.00;99.90;;;;;;5051313;28;20315;-65
2022/07/16 11:03:09;;;;;;;5.27;1.30;;;20.70;99.90;;;;;;5051700;28;20326;-65
2022/07/16 11:05:47;;;;;;;4.70;1.10;;;21.20;99.90;;;;;;5052211;28;20227;-66
2022/07/16 11:08:15;;;;;;;4.73;1.10;;;22.40;99.90;;;;;;5051701;28;20262;-66
2022/07/16 11:10:43;;;;;;;2.97;1.00;;;22.60;99.90;;;;;;5051355;28;20223;-65
2022/07/16 11:13:15;;;;;;;9.10;1.20;;;21.70;99.90;;;;;;5052475;28;20576;-64
2022/07/16 11:15:44;;;;;;;4.67;1.10;;;20.80;99.90;;;;;;5052035;28;20227;-65
2022/07/16 11:18:19;;;;;;;6.17;1.10;;;20.70;99.90;;;;;;5052842;28;20223;-65
2022/07/16 11:20:48;;;;;;;4.90;2.83;;;21.40;99.90;;;;;;5053991;28;20235;-66
2022/07/16 11:23:18;;;;;;;3.43;1.10;;;22.40;99.90;;;;;;5054254;28;20262;-66
2022/07/16 11:26:01;;;;;;;4.20;1.30;;;22.00;99.90;;;;;;5055177;28;20235;-65
2022/07/16 11:28:30;;;;;;;3.33;1.10;;;21.50;99.90;;;;;;5054189;28;20306;-65
2022/07/16 11:31:08;;;;;;;4.93;1.30;;;20.90;99.90;;;;;;5055187;28;20276;-65
2022/07/16 11:33:51;;;;;;;6.57;2.10;;;21.20;99.90;;;;;;5055528;28;20568;-66
2022/07/16 11:36:19;;;;;;;8.13;2.70;;;22.20;99.90;;;;;;5054725;28;20223;-66
2022/07/16 11:38:48;;;;;;;6.57;3.87;;;22.90;99.90;;;;;;5052270;28;20223;-66
2022/07/16 11:41:17;;;;;;;5.83;2.03;;;23.70;99.90;;;;;;5054217;28;20353;-67
2022/07/16 11:43:50;;;;;;;7.50;2.20;;;23.80;99.90;;;;;;5054436;28;20250;-66
2022/07/16 11:46:27;;;;;;;5.20;2.43;;;23.00;99.90;;;;;;5053628;28;20215;-66
2022/07/16 11:48:56;;;;;;;13.17;6.30;;;22.60;99.90;;;;;;5054489;28;20224;-66
2022/07/16 11:51:25;;;;;;;3.40;1.53;;;22.50;99.90;;;;;;5055175;28;20240;-66
2022/07/16 11:53:54;;;;;;;4.00;1.10;;;22.80;99.90;;;;;;5054210;28;20310;-66
2022/07/16 11:56:33;;;;;;;3.07;1.00;;;22.50;99.90;;;;;;5054393;28;20703;-66
2022/07/16 11:59:02;;;;;;;5.43;1.30;;;21.80;99.90;;;;;;5052649;28;20293;-66
2022/07/16 12:01:35;;;;;;;7.63;3.97;;;21.40;99.90;;;;;;5050974;28;20314;-65
2022/07/16 12:04:06;;;;;;;4.63;1.13;;;21.20;99.90;;;;;;5054643;28;20231;-64
2022/07/16 12:06:35;;;;;;;2.57;1.20;;;21.20;99.90;;;;;;5054234;28;20234;-66
2022/07/16 12:09:04;;;;;;;5.13;1.10;;;20.90;99.90;;;;;;5054853;28;20746;-66
2022/07/16 12:11:34;;;;;;;5.13;1.30;;;20.70;99.90;;;;;;5054398;28;20220;-66
2022/07/16 12:14:03;;;;;;;8.23;1.40;;;20.80;99.90;;;;;;5053808;28;20292;-66
2022/07/16 12:16:32;;;;;;;4.57;0.97;;;20.90;99.90;;;;;;5053412;28;20267;-65
2022/07/16 12:19:07;;;;;;;6.70;1.93;;;21.00;99.90;;;;;;5054081;28;20227;-66
2022/07/16 12:21:37;;;;;;;5.20;1.60;;;20.80;99.90;;;;;;5047638;28;20311;-66
2022/07/16 12:24:06;;;;;;;3.63;1.20;;;20.70;99.90;;;;;;5054835;28;20316;-66
2022/07/16 12:26:36;;;;;;;3.60;1.13;;;21.00;99.90;;;;;;5054080;28;20228;-66
2022/07/16 12:29:07;;;;;;;4.23;1.40;;;21.40;99.90;;;;;;5052893;28;20223;-66
2022/07/16 12:31:38;;;;;;;5.47;1.20;;;21.20;99.90;;;;;;5053416;28;20297;-66
2022/07/16 12:34:09;;;;;;;4.23;1.07;;;21.00;99.90;;;;;;5054829;28;20280;-66
2022/07/16 12:36:39;;;;;;;5.10;1.30;;;20.80;99.90;;;;;;5054677;28;20238;-66
2022/07/16 12:39:08;;;;;;;7.57;1.73;;;20.70;99.90;;;;;;5054667;28;20278;-65
2022/07/16 12:41:39;;;;;;;3.07;1.07;;;20.60;99.90;;;;;;5054783;28;20749;-67
2022/07/16 12:44:10;;;;;;;4.40;1.10;;;20.60;99.90;;;;;;5054300;28;20229;-66
2022/07/16 12:46:40;;;;;;;4.63;1.10;;;20.60;99.90;;;;;;5053243;28;20278;-66
2022/07/16 12:49:13;;;;;;;3.47;1.10;;;20.80;99.90;;;;;;5053908;28;20622;-66
2022/07/16 12:51:43;;;;;;;5.10;1.07;;;20.90;99.90;;;;;;5053311;28;20710;-66
2022/07/16 12:54:13;;;;;;;5.97;1.40;;;21.00;99.90;;;;;;5053130;28;20233;-66
2022/07/16 12:59:28;;;;;;;6.90;1.27;;;20.80;99.90;;;;;;5052978;28;20223;-66
2022/07/16 13:01:57;;;;;;;3.27;1.00;;;20.50;99.90;;;;;;5053087;28;20242;-66
2022/07/16 13:04:27;;;;;;;4.50;1.17;;;20.40;99.90;;;;;;5053196;28;20267;-65
2022/07/16 13:06:55;;;;;;;3.50;1.30;;;20.70;99.90;;;;;;5053561;28;20223;-66
2022/07/16 13:09:23;;;;;;;3.10;1.20;;;20.70;99.90;;;;;;5054232;28;20612;-65
2022/07/16 13:11:52;;;;;;;5.57;0.97;;;20.60;99.90;;;;;;5053688;28;20720;-66